Time;durP1;ratioP1;P1;durP2;ratioP2;P2;SDS_P1;SDS_P2;PMS_P1;PMS_P2;Temp;Humidity;BMP_temperature;BMP_pressure;BME280_temperature;BME280_humidity;BME280_pressure;Samples;Min_cycle;Max_cycle;Signal;HPM_P1;HPM_P2
2023/12/31 00:00:13;;;;;;;7.55;5.07;;;7.50;99.90;;;;;;4900077;29;20032;-76
2023/12/31 00:02:39;;;;;;;6.20;4.63;;;7.50;99.90;;;;;;4900056;29;20040;-76
2023/12/31 00:05:06;;;;;;;5.22;4.50;;;7.50;99.90;;;;;;4895153;29;20044;-76
2023/12/31 00:07:32;;;;;;;6.15;4.30;;;7.50;99.90;;;;;;4902620;29;20084;-76
2023/12/31 00:09:57;;;;;;;6.30;4.68;;;7.50;99.90;;;;;;4895493;29;20062;-76
2023/12/31 00:12:23;;;;;;;6.80;4.68;;;7.50;99.90;;;;;;4897036;29;20076;-75
2023/12/31 00:14:49;;;;;;;5.15;4.22;;;7.50;99.90;;;;;;4902282;29;20652;-75
2023/12/31 00:17:14;;;;;;;5.95;4.45;;;7.40;99.90;;;;;;4900233;29;20044;-75
2023/12/31 00:19:40;;;;;;;6.85;4.57;;;7.40;99.90;;;;;;4931387;29;20083;-75
2023/12/31 00:22:09;;;;;;;5.53;4.28;;;7.40;99.90;;;;;;4904660;29;20507;-75
2023/12/31 00:24:34;;;;;;;6.05;4.30;;;7.30;99.90;;;;;;4901482;29;20044;-76
2023/12/31 00:27:00;;;;;;;7.03;4.90;;;7.30;99.90;;;;;;4905722;29;20410;-76
2023/12/31 00:29:29;;;;;;;6.28;4.50;;;7.30;99.90;;;;;;4915017;29;20040;-76
2023/12/31 00:31:55;;;;;;;5.57;4.97;;;7.30;99.90;;;;;;4892814;29;20372;-76
2023/12/31 00:34:20;;;;;;;6.88;4.80;;;7.30;99.90;;;;;;4899585;29;20071;-76
2023/12/31 00:36:46;;;;;;;6.72;4.63;;;7.40;99.90;;;;;;4889683;29;20048;-76
2023/12/31 00:39:12;;;;;;;7.53;4.63;;;7.40;99.90;;;;;;4891864;29;20395;-76
2023/12/31 00:41:38;;;;;;;6.45;4.55;;;7.40;99.90;;;;;;4899208;29;20068;-76
2023/12/31 00:44:03;;;;;;;5.70;4.35;;;7.40;99.90;;;;;;4893718;29;20051;-76
2023/12/31 00:46:29;;;;;;;4.38;3.63;;;7.50;99.90;;;;;;4891193;29;20040;-76
2023/12/31 00:48:55;;;;;;;6.03;4.32;;;7.40;99.90;;;;;;4881314;29;20050;-76
2023/12/31 00:51:21;;;;;;;6.20;4.13;;;7.40;99.90;;;;;;4883152;29;21450;-76
2023/12/31 00:53:47;;;;;;;6.95;4.15;;;7.40;99.90;;;;;;4899463;29;20510;-76
2023/12/31 00:56:12;;;;;;;6.30;4.55;;;7.40;99.90;;;;;;4899156;29;20040;-76
2023/12/31 00:58:38;;;;;;;4.78;3.97;;;7.30;99.90;;;;;;4898160;29;20075;-76
2023/12/31 01:01:04;;;;;;;5.32;4.65;;;7.30;99.90;;;;;;4892751;29;20115;-76
2023/12/31 01:03:30;;;;;;;4.55;4.00;;;7.30;99.90;;;;;;4895983;29;20101;-76
2023/12/31 01:06:04;;;;;;;6.80;4.30;;;7.20;99.90;;;;;;4905371;29;20389;-76
2023/12/31 01:08:32;;;;;;;4.90;4.10;;;7.20;99.90;;;;;;4898726;29;20044;-76
2023/12/31 01:10:58;;;;;;;4.75;4.10;;;7.20;99.90;;;;;;4908437;29;20043;-76
2023/12/31 01:13:23;;;;;;;4.93;3.92;;;7.20;99.90;;;;;;4898168;29;20102;-75
2023/12/31 01:15:49;;;;;;;4.68;4.18;;;7.20;99.90;;;;;;4867664;29;20333;-75
2023/12/31 01:18:15;;;;;;;4.75;3.50;;;7.10;99.90;;;;;;4881387;29;20087;-75
2023/12/31 01:20:41;;;;;;;4.95;4.07;;;7.20;99.90;;;;;;4898518;29;20048;-75
2023/12/31 01:23:07;;;;;;;4.95;3.90;;;7.20;99.90;;;;;;4893420;29;20173;-75
2023/12/31 01:25:33;;;;;;;4.90;3.95;;;7.20;99.90;;;;;;4899139;29;20415;-75
2023/12/31 01:28:00;;;;;;;4.95;3.53;;;7.20;99.90;;;;;;4892033;29;20075;-75
2023/12/31 01:30:26;;;;;;;4.45;3.22;;;7.30;99.90;;;;;;4914636;29;20044;-76
2023/12/31 01:32:52;;;;;;;4.03;3.25;;;7.20;99.90;;;;;;4907538;29;20051;-76
2023/12/31 01:35:20;;;;;;;4.07;3.10;;;7.30;99.90;;;;;;4914989;29;20110;-76
2023/12/31 01:37:46;;;;;;;6.18;3.25;;;7.30;99.90;;;;;;4897946;29;20044;-75
2023/12/31 01:40:12;;;;;;;5.47;3.10;;;7.30;99.90;;;;;;4886332;29;20119;-75
2023/12/31 01:42:38;;;;;;;4.70;3.00;;;7.30;99.90;;;;;;4896072;29;20065;-75
2023/12/31 01:45:05;;;;;;;3.85;2.90;;;7.30;99.90;;;;;;4909003;29;20070;-75
2023/12/31 01:47:36;;;;;;;5.35;2.85;;;7.30;99.90;;;;;;4930189;29;20513;-75
2023/12/31 01:50:04;;;;;;;4.40;2.65;;;7.30;99.90;;;;;;4924020;29;20048;-75
2023/12/31 01:52:31;;;;;;;5.22;2.50;;;7.30;99.90;;;;;;4897409;29;20047;-75
2023/12/31 01:55:00;;;;;;;4.10;2.15;;;7.30;99.90;;;;;;4888361;29;20048;-75
2023/12/31 01:57:29;;;;;;;4.07;2.50;;;7.40;99.90;;;;;;4895425;29;20495;-75
2023/12/31 01:59:59;;;;;;;2.97;2.25;;;7.40;99.90;;;;;;4876901;29;20111;-75
2023/12/31 02:02:26;;;;;;;3.30;2.20;;;7.40;99.90;;;;;;4929942;29;20046;-75
2023/12/31 02:04:52;;;;;;;2.50;2.10;;;7.40;99.90;;;;;;4897858;29;20044;-75
2023/12/31 02:07:18;;;;;;;4.45;2.38;;;7.40;99.90;;;;;;4884310;29;20479;-75
2023/12/31 02:09:44;;;;;;;3.38;2.00;;;7.40;99.90;;;;;;4894102;29;20135;-75
2023/12/31 02:12:10;;;;;;;2.75;1.98;;;7.40;99.90;;;;;;4912150;29;20040;-75
2023/12/31 02:14:36;;;;;;;3.10;2.25;;;7.30;99.90;;;;;;4902080;29;20051;-75
2023/12/31 02:17:01;;;;;;;3.03;2.10;;;7.30;99.90;;;;;;4895551;29;20047;-75
2023/12/31 02:19:29;;;;;;;3.25;2.30;;;7.30;99.90;;;;;;4909940;29;20032;-75
2023/12/31 02:21:55;;;;;;;3.70;2.45;;;7.30;99.90;;;;;;4895000;29;20040;-75
2023/12/31 02:24:31;;;;;;;3.35;2.10;;;7.40;99.90;;;;;;4908845;29;20032;-75
2023/12/31 02:26:57;;;;;;;3.33;2.42;;;7.30;99.90;;;;;;4891195;29;20053;-75
2023/12/31 02:29:23;;;;;;;4.68;2.17;;;7.30;99.90;;;;;;4901564;29;20040;-75
2023/12/31 02:31:49;;;;;;;3.13;2.28;;;7.30;99.90;;;;;;4894527;29;20041;-75
2023/12/31 02:34:18;;;;;;;4.57;2.20;;;7.30;99.90;;;;;;4909540;29;20425;-75
2023/12/31 02:36:43;;;;;;;3.50;2.22;;;7.30;99.90;;;;;;4898473;29;20176;-75
2023/12/31 02:39:09;;;;;;;3.40;2.00;;;7.20;99.90;;;;;;4894056;29;20076;-75
2023/12/31 02:41:35;;;;;;;2.75;2.08;;;7.20;99.90;;;;;;4917855;29;20130;-75
2023/12/31 02:44:01;;;;;;;3.70;2.13;;;7.20;99.90;;;;;;4895529;29;20076;-75
2023/12/31 02:46:27;;;;;;;3.10;2.10;;;7.30;99.90;;;;;;4900998;29;20569;-75
2023/12/31 02:48:53;;;;;;;4.38;2.20;;;7.30;99.90;;;;;;4909087;29;20040;-75
2023/12/31 02:51:19;;;;;;;2.83;2.30;;;7.30;99.90;;;;;;4901369;29;20477;-75
2023/12/31 02:53:45;;;;;;;4.25;2.65;;;7.30;99.90;;;;;;4901241;29;20044;-75
2023/12/31 02:56:10;;;;;;;3.58;2.58;;;7.40;99.90;;;;;;4893141;29;20084;-75
2023/12/31 02:58:36;;;;;;;4.15;2.97;;;7.50;99.90;;;;;;4900842;29;20048;-75
2023/12/31 03:01:02;;;;;;;3.50;2.97;;;7.50;99.90;;;;;;4895321;29;20047;-75
2023/12/31 03:03:28;;;;;;;4.28;3.10;;;7.50;99.90;;;;;;4901050;29;20099;-75
2023/12/31 03:05:53;;;;;;;5.47;3.38;;;7.60;99.90;;;;;;4894313;29;20086;-75
2023/12/31 03:08:19;;;;;;;4.60;3.08;;;7.60;99.90;;;;;;4901636;29;20048;-75
2023/12/31 03:10:45;;;;;;;4.97;3.45;;;7.60;99.90;;;;;;4892619;29;20048;-75
2023/12/31 03:13:11;;;;;;;5.65;3.70;;;7.60;99.90;;;;;;4883278;29;20757;-75
2023/12/31 03:15:36;;;;;;;5.00;3.92;;;7.60;99.90;;;;;;4897934;29;20041;-75
2023/12/31 03:18:04;;;;;;;5.18;3.92;;;7.60;99.90;;;;;;4891941;29;20512;-76
2023/12/31 03:20:29;;;;;;;4.30;3.50;;;7.60;99.90;;;;;;4911761;29;20051;-76
2023/12/31 03:22:55;;;;;;;5.50;3.80;;;7.50;99.90;;;;;;4894254;29;20044;-76
2023/12/31 03:25:21;;;;;;;5.60;4.38;;;7.50;99.90;;;;;;4925559;29;20551;-76
2023/12/31 03:27:47;;;;;;;5.85;3.88;;;7.50;99.90;;;;;;4889696;29;20136;-75
2023/12/31 03:30:13;;;;;;;5.95;4.20;;;7.50;99.90;;;;;;4931858;29;20059;-75
2023/12/31 03:32:39;;;;;;;5.38;3.85;;;7.50;99.90;;;;;;4900552;29;20055;-75
2023/12/31 03:35:07;;;;;;;6.55;4.40;;;7.40;99.90;;;;;;4891411;29;20049;-75
2023/12/31 03:37:34;;;;;;;5.40;4.15;;;7.40;99.90;;;;;;4900399;29;20048;-75
2023/12/31 03:40:00;;;;;;;6.15;4.50;;;7.50;99.90;;;;;;4891593;29;20044;-75
2023/12/31 03:42:26;;;;;;;5.32;4.50;;;7.40;99.90;;;;;;4881975;29;20051;-75
2023/12/31 03:44:52;;;;;;;6.30;4.30;;;7.40;99.90;;;;;;4874870;29;20051;-75
2023/12/31 03:47:17;;;;;;;6.93;4.40;;;7.50;99.90;;;;;;4881807;29;20040;-75
2023/12/31 03:49:43;;;;;;;6.00;4.60;;;7.50;99.90;;;;;;4911567;29;20474;-75
2023/12/31 03:52:10;;;;;;;4.80;4.30;;;7.50;99.90;;;;;;4895929;29;20044;-75
2023/12/31 03:54:39;;;;;;;5.50;4.80;;;7.50;99.90;;;;;;4916494;29;20047;-75
2023/12/31 03:57:05;;;;;;;6.82;4.65;;;7.50;99.90;;;;;;4910297;29;20098;-75
2023/12/31 03:59:31;;;;;;;5.55;4.70;;;7.50;99.90;;;;;;4896802;29;20041;-75
2023/12/31 04:01:58;;;;;;;4.60;4.18;;;7.50;99.90;;;;;;4875089;29;20104;-75
2023/12/31 04:04:25;;;;;;;6.57;4.13;;;7.60;99.90;;;;;;4906462;29;20494;-75
2023/12/31 04:06:51;;;;;;;6.82;4.20;;;7.60;99.90;;;;;;4908496;29;20055;-75
2023/12/31 04:09:17;;;;;;;5.70;3.97;;;7.60;99.90;;;;;;4899661;29;20048;-75
2023/12/31 04:11:45;;;;;;;5.03;4.10;;;7.60;99.90;;;;;;4916118;29;20491;-75
2023/12/31 04:14:11;;;;;;;4.97;3.83;;;7.60;99.90;;;;;;4911135;29;20135;-75
2023/12/31 04:16:37;;;;;;;5.13;3.72;;;7.60;99.90;;;;;;4915584;29;20540;-75
2023/12/31 04:19:03;;;;;;;4.82;3.78;;;7.70;99.90;;;;;;4909883;29;20103;-75
2023/12/31 04:21:32;;;;;;;5.20;3.88;;;7.70;99.90;;;;;;4906452;29;20036;-75
2023/12/31 04:23:57;;;;;;;4.10;3.45;;;7.70;99.90;;;;;;4880862;29;20060;-75
2023/12/31 04:26:23;;;;;;;5.38;3.58;;;7.60;99.90;;;;;;4912118;29;20071;-76
2023/12/31 04:28:49;;;;;;;5.28;3.85;;;7.70;99.90;;;;;;4912628;23;20052;-77
2023/12/31 04:31:15;;;;;;;4.22;3.33;;;7.70;99.90;;;;;;4934440;29;20486;-77
2023/12/31 04:33:40;;;;;;;4.55;3.55;;;7.70;99.90;;;;;;4917573;29;20047;-77
2023/12/31 04:36:06;;;;;;;4.03;3.35;;;7.70;99.90;;;;;;4929014;29;20039;-77
2023/12/31 04:38:32;;;;;;;4.90;3.70;;;7.70;99.90;;;;;;4927495;29;20119;-77
2023/12/31 04:40:58;;;;;;;5.20;3.67;;;7.70;99.90;;;;;;4882657;29;20172;-77
2023/12/31 04:43:23;;;;;;;4.57;3.60;;;7.60;99.90;;;;;;4865411;29;20411;-76
2023/12/31 04:45:49;;;;;;;5.60;3.47;;;7.60;99.90;;;;;;4865707;29;20496;-77
2023/12/31 04:48:14;;;;;;;5.00;3.38;;;7.70;99.90;;;;;;4896244;29;20046;-77
2023/12/31 04:50:42;;;;;;;4.28;3.60;;;7.70;99.90;;;;;;4914873;29;20040;-77
2023/12/31 04:53:08;;;;;;;5.88;4.10;;;7.60;99.90;;;;;;4910160;29;20127;-76
2023/12/31 04:55:33;;;;;;;4.18;3.70;;;7.60;99.90;;;;;;4901069;29;20499;-77
2023/12/31 04:57:59;;;;;;;6.18;4.07;;;7.60;99.90;;;;;;4880518;29;20415;-77
2023/12/31 05:00:25;;;;;;;5.90;3.67;;;7.60;99.90;;;;;;4880855;29;20076;-77
2023/12/31 05:02:50;;;;;;;4.43;3.47;;;7.70;99.90;;;;;;4882720;29;20135;-77
2023/12/31 05:05:16;;;;;;;4.80;3.67;;;7.70;99.90;;;;;;4910404;29;20131;-77
2023/12/31 05:07:42;;;;;;;6.13;4.05;;;7.70;99.90;;;;;;4912912;29;20090;-77
2023/12/31 05:10:08;;;;;;;6.05;3.85;;;7.70;99.90;;;;;;4884640;29;20476;-77
2023/12/31 05:12:33;;;;;;;4.50;3.88;;;7.70;99.90;;;;;;4880276;29;20068;-77
2023/12/31 05:14:59;;;;;;;4.80;3.78;;;7.70;99.90;;;;;;4864610;29;20183;-77
2023/12/31 05:17:24;;;;;;;5.78;4.47;;;7.70;99.90;;;;;;4864907;29;20407;-77
2023/12/31 05:19:50;;;;;;;6.13;4.15;;;7.70;99.90;;;;;;4900109;29;20491;-77
2023/12/31 05:22:15;;;;;;;5.60;4.85;;;7.70;99.90;;;;;;4914589;29;20044;-77
2023/12/31 05:24:41;;;;;;;5.60;4.85;;;7.60;99.90;;;;;;4898700;29;20048;-77
2023/12/31 05:27:06;;;;;;;5.78;5.28;;;7.60;99.90;;;;;;4909409;29;20052;-77
2023/12/31 05:29:32;;;;;;;6.00;5.50;;;7.60;99.90;;;;;;4896035;29;20044;-77
2023/12/31 05:31:57;;;;;;;7.53;5.70;;;7.60;99.90;;;;;;4880418;29;20040;-77
2023/12/31 05:34:23;;;;;;;5.97;5.32;;;7.60;99.90;;;;;;4879780;29;20123;-77
2023/12/31 05:36:49;;;;;;;8.00;5.85;;;7.60;99.90;;;;;;4884490;29;20504;-77
2023/12/31 05:39:14;;;;;;;6.53;5.93;;;7.60;99.90;;;;;;4913841;29;20046;-77
2023/12/31 05:41:40;;;;;;;7.30;6.00;;;7.60;99.90;;;;;;4913350;29;20124;-77
2023/12/31 05:44:05;;;;;;;7.38;5.22;;;7.60;99.90;;;;;;4893398;29;20051;-77
2023/12/31 05:46:31;;;;;;;6.32;5.72;;;7.60;99.90;;;;;;4898063;29;20055;-77
2023/12/31 05:48:56;;;;;;;7.00;5.28;;;7.60;99.90;;;;;;4890906;29;20075;-77
2023/12/31 05:51:22;;;;;;;6.32;5.10;;;7.60;99.90;;;;;;4897974;29;20085;-77
2023/12/31 05:53:47;;;;;;;6.05;4.97;;;7.60;99.90;;;;;;4906741;29;20044;-77
2023/12/31 05:56:14;;;;;;;4.88;4.25;;;7.70;99.90;;;;;;4898547;29;20043;-77
2023/12/31 05:58:42;;;;;;;5.30;4.47;;;7.70;99.90;;;;;;4913571;29;20040;-77
2023/12/31 06:01:10;;;;;;;5.20;4.32;;;7.70;99.90;;;;;;4881537;29;20472;-77
2023/12/31 06:03:35;;;;;;;4.93;4.10;;;7.80;99.90;;;;;;4910726;29;20040;-77
2023/12/31 06:06:01;;;;;;;5.32;4.65;;;7.80;99.90;;;;;;4908408;29;20630;-77
2023/12/31 06:08:26;;;;;;;4.78;4.05;;;7.80;99.90;;;;;;4904640;29;20526;-77
2023/12/31 06:10:52;;;;;;;4.85;4.30;;;7.80;99.90;;;;;;4906447;29;20063;-76
2023/12/31 06:13:18;;;;;;;5.05;3.80;;;7.80;99.90;;;;;;4914073;29;20172;-77
2023/12/31 06:15:43;;;;;;;4.28;3.80;;;7.80;99.90;;;;;;4914070;29;20127;-77
2023/12/31 06:18:10;;;;;;;4.53;3.60;;;7.80;99.90;;;;;;4872200;29;20047;-77
2023/12/31 06:20:35;;;;;;;3.80;3.33;;;7.80;99.90;;;;;;4896903;29;20036;-77
2023/12/31 06:23:01;;;;;;;3.80;3.45;;;7.90;99.90;;;;;;4892405;29;20429;-77
2023/12/31 06:25:26;;;;;;;4.70;3.30;;;8.00;99.90;;;;;;4898307;29;20463;-77
2023/12/31 06:27:52;;;;;;;4.35;3.60;;;8.00;99.90;;;;;;4891470;29;20321;-77
2023/12/31 06:30:18;;;;;;;4.88;3.30;;;7.90;99.90;;;;;;4893161;29;20052;-77
2023/12/31 06:32:43;;;;;;;5.53;3.55;;;8.00;99.90;;;;;;4898498;29;20048;-77
2023/12/31 06:35:09;;;;;;;4.63;3.53;;;7.90;99.90;;;;;;4908944;29;20041;-77
2023/12/31 06:37:34;;;;;;;4.55;3.40;;;7.90;99.90;;;;;;4913308;29;20096;-77
2023/12/31 06:40:00;;;;;;;3.80;3.38;;;8.00;99.90;;;;;;4891597;29;20459;-77
2023/12/31 06:42:25;;;;;;;4.13;3.63;;;8.00;99.90;;;;;;4909359;29;20479;-77
2023/12/31 06:44:51;;;;;;;3.95;3.10;;;8.00;99.90;;;;;;4881102;29;20531;-77
2023/12/31 06:47:17;;;;;;;4.13;3.72;;;8.00;99.90;;;;;;4879559;29;20517;-77
2023/12/31 06:49:42;;;;;;;4.38;3.70;;;8.10;99.90;;;;;;4879792;29;20032;-77
2023/12/31 06:52:08;;;;;;;4.47;3.90;;;8.10;99.90;;;;;;4877230;29;20099;-78
2023/12/31 06:54:33;;;;;;;4.40;4.00;;;8.10;99.90;;;;;;4914706;29;20040;-78
2023/12/31 06:56:59;;;;;;;5.15;4.13;;;8.10;99.90;;;;;;4907561;29;20036;-78
2023/12/31 06:59:24;;;;;;;4.20;3.80;;;8.10;99.90;;;;;;4917827;29;20087;-78
2023/12/31 07:01:50;;;;;;;9.40;8.23;;;8.10;99.90;;;;;;4905752;29;20044;-78
2023/12/31 07:04:15;;;;;;;4.63;4.00;;;8.10;99.90;;;;;;4914185;29;20041;-80
2023/12/31 07:06:41;;;;;;;4.43;3.60;;;8.20;99.90;;;;;;4884317;29;20167;-79
2023/12/31 07:09:07;;;;;;;5.25;3.80;;;8.20;99.90;;;;;;4881818;29;20036;-79
2023/12/31 07:11:32;;;;;;;7.00;4.25;;;8.30;99.90;;;;;;4912569;29;20052;-80
2023/12/31 07:13:58;;;;;;;4.07;3.67;;;8.30;99.90;;;;;;4896074;29;20071;-80
2023/12/31 07:16:23;;;;;;;4.47;3.90;;;8.30;99.90;;;;;;4884324;29;20051;-79
2023/12/31 07:18:49;;;;;;;5.97;4.13;;;8.30;99.90;;;;;;4878897;29;20040;-80
2023/12/31 07:21:23;;;;;;;3.95;3.38;;;8.40;99.90;;;;;;4887143;29;20040;-80
2023/12/31 07:23:49;;;;;;;4.80;4.03;;;8.40;99.90;;;;;;4900734;29;20543;-78
2023/12/31 07:26:28;;;;;;;4.70;3.92;;;8.40;99.90;;;;;;4918431;29;20071;-79
2023/12/31 07:28:54;;;;;;;4.38;3.60;;;8.50;99.90;;;;;;4885527;29;20422;-78
2023/12/31 07:31:20;;;;;;;5.22;4.10;;;8.50;99.90;;;;;;4900445;29;20044;-78
2023/12/31 07:33:47;;;;;;;4.50;4.10;;;8.50;99.90;;;;;;4916209;29;20051;-79
2023/12/31 07:36:12;;;;;;;4.30;3.90;;;8.50;99.90;;;;;;4903173;29;20084;-76
2023/12/31 07:38:38;;;;;;;4.00;3.60;;;8.50;99.90;;;;;;4900954;29;20044;-76
2023/12/31 07:41:04;;;;;;;5.10;4.20;;;8.50;99.90;;;;;;4895135;29;20032;-77
2023/12/31 07:43:31;;;;;;;4.65;3.85;;;8.50;99.90;;;;;;4916431;29;20443;-78
2023/12/31 07:45:56;;;;;;;5.45;4.00;;;8.50;99.90;;;;;;4909459;29;20048;-76
2023/12/31 07:48:22;;;;;;;4.82;4.00;;;8.50;99.90;;;;;;4915852;29;20040;-77
2023/12/31 07:50:48;;;;;;;4.30;3.90;;;8.50;99.90;;;;;;4884995;29;20047;-78
2023/12/31 07:53:14;;;;;;;4.55;3.70;;;8.50;99.90;;;;;;4911009;29;20123;-77
2023/12/31 07:55:39;;;;;;;5.57;3.70;;;8.50;99.90;;;;;;4901416;29;20127;-78
2023/12/31 07:58:05;;;;;;;4.95;4.00;;;8.50;99.90;;;;;;4911914;29;20039;-78
2023/12/31 08:00:30;;;;;;;4.78;4.38;;;8.50;99.90;;;;;;4917781;29;20414;-78
2023/12/31 08:02:56;;;;;;;5.40;4.50;;;8.40;99.90;;;;;;4888482;29;20507;-78
2023/12/31 08:05:22;;;;;;;5.15;4.50;;;8.40;99.90;;;;;;4868096;29;20500;-77
2023/12/31 08:07:47;;;;;;;5.60;4.93;;;8.40;99.90;;;;;;4883033;29;20044;-80
2023/12/31 08:10:13;;;;;;;4.80;4.30;;;8.40;99.90;;;;;;4885047;29;20093;-77
2023/12/31 08:12:38;;;;;;;4.90;4.40;;;8.40;99.90;;;;;;4913574;29;20135;-77
2023/12/31 08:15:05;;;;;;;4.65;4.25;;;8.40;99.90;;;;;;4909848;29;20047;-77
2023/12/31 08:17:30;;;;;;;4.72;4.22;;;8.40;99.90;;;;;;4916162;29;20394;-77
2023/12/31 08:19:56;;;;;;;5.43;4.30;;;8.40;99.90;;;;;;4893965;29;20036;-76
2023/12/31 08:22:21;;;;;;;5.22;3.92;;;8.40;99.90;;;;;;4915737;29;20127;-77
2023/12/31 08:24:47;;;;;;;5.90;3.97;;;8.40;99.90;;;;;;4908180;29;20446;-77
2023/12/31 08:27:12;;;;;;;5.18;4.50;;;8.40;99.90;;;;;;4898768;29;20036;-77
2023/12/31 08:29:41;;;;;;;4.90;4.07;;;8.40;99.90;;;;;;4915477;29;20099;-76
2023/12/31 08:32:06;;;;;;;4.38;3.97;;;8.50;99.90;;;;;;4894862;29;20040;-77
2023/12/31 08:34:32;;;;;;;4.78;4.28;;;8.50;99.90;;;;;;4915631;29;20101;-77
2023/12/31 08:36:58;;;;;;;5.72;4.85;;;8.50;99.90;;;;;;4893361;29;20088;-77
2023/12/31 08:39:23;;;;;;;4.50;3.80;;;8.50;99.90;;;;;;4914978;29;20040;-77
2023/12/31 08:41:49;;;;;;;7.07;5.40;;;8.60;99.90;;;;;;4907847;29;20040;-76
2023/12/31 08:44:14;;;;;;;5.55;4.60;;;8.60;99.90;;;;;;4914446;29;20123;-76
2023/12/31 08:46:40;;;;;;;5.05;4.38;;;8.60;99.90;;;;;;4910990;29;20067;-77
2023/12/31 08:49:07;;;;;;;7.22;5.07;;;8.60;99.90;;;;;;4902535;29;20059;-77
2023/12/31 08:51:32;;;;;;;6.35;4.88;;;8.60;99.90;;;;;;4912049;29;20060;-77
2023/12/31 08:53:58;;;;;;;4.78;4.25;;;8.60;99.90;;;;;;4901937;29;20123;-77
2023/12/31 08:56:23;;;;;;;5.80;4.25;;;8.60;99.90;;;;;;4899600;29;20047;-79
2023/12/31 08:58:49;;;;;;;6.32;4.60;;;8.70;99.90;;;;;;4889668;29;20043;-77
2023/12/31 09:01:16;;;;;;;4.72;4.30;;;8.70;99.90;;;;;;4912870;29;20439;-77
2023/12/31 09:03:42;;;;;;;4.82;4.30;;;8.70;99.90;;;;;;4898759;29;20040;-77
2023/12/31 09:06:10;;;;;;;5.95;4.90;;;8.70;99.90;;;;;;4909902;29;20051;-77
2023/12/31 09:08:36;;;;;;;7.10;5.60;;;8.70;99.90;;;;;;4914845;29;20059;-77
2023/12/31 09:11:02;;;;;;;11.13;7.88;;;8.70;99.90;;;;;;4908528;29;20099;-76
2023/12/31 09:13:27;;;;;;;5.78;5.07;;;8.70;99.90;;;;;;4913444;29;20468;-77
2023/12/31 09:15:55;;;;;;;6.03;5.40;;;8.70;99.90;;;;;;4907038;29;20080;-76
2023/12/31 09:18:21;;;;;;;8.50;6.15;;;8.80;99.90;;;;;;4896107;29;20036;-76
2023/12/31 09:20:47;;;;;;;5.80;5.20;;;8.80;99.90;;;;;;4903835;29;20041;-76
2023/12/31 09:23:12;;;;;;;6.15;5.07;;;8.80;99.90;;;;;;4908427;29;20042;-76
2023/12/31 09:25:38;;;;;;;5.93;5.05;;;8.80;99.90;;;;;;4884871;29;20064;-76
2023/12/31 09:28:04;;;;;;;7.05;4.80;;;8.80;99.90;;;;;;4905057;29;20047;-77
2023/12/31 09:30:29;;;;;;;5.75;4.43;;;8.80;99.90;;;;;;4911366;29;20074;-76
2023/12/31 09:32:55;;;;;;;5.65;4.80;;;8.90;99.90;;;;;;4892589;29;20067;-76
2023/12/31 09:35:20;;;;;;;5.88;4.85;;;8.90;99.90;;;;;;4910367;29;20040;-76
2023/12/31 09:37:46;;;;;;;5.80;5.20;;;9.00;99.90;;;;;;4914000;29;20563;-76
2023/12/31 09:40:12;;;;;;;5.50;4.85;;;9.00;99.90;;;;;;4913823;29;20087;-76
2023/12/31 09:42:51;;;;;;;5.97;5.32;;;9.00;99.90;;;;;;4913502;29;20495;-76
2023/12/31 09:45:24;;;;;;;7.07;5.50;;;9.10;99.90;;;;;;4909469;29;20040;-76
2023/12/31 09:47:51;;;;;;;6.85;5.28;;;9.10;99.90;;;;;;4913928;29;20040;-77
2023/12/31 09:50:22;;;;;;;6.60;5.20;;;9.10;99.90;;;;;;4914266;29;20066;-77
2023/12/31 09:52:48;;;;;;;8.02;5.40;;;9.10;99.90;;;;;;4905629;29;20127;-77
2023/12/31 09:55:20;;;;;;;5.93;4.93;;;9.20;99.90;;;;;;4910697;29;20192;-77
2023/12/31 09:57:47;;;;;;;6.00;5.00;;;9.10;99.90;;;;;;4895685;29;20044;-77
2023/12/31 10:00:13;;;;;;;5.93;5.38;;;9.20;99.90;;;;;;4895579;29;20044;-76
2023/12/31 10:02:39;;;;;;;5.75;5.15;;;9.30;99.90;;;;;;4898698;29;20058;-77
2023/12/31 10:05:06;;;;;;;7.30;5.13;;;9.30;99.90;;;;;;4905511;29;20032;-77
2023/12/31 10:07:31;;;;;;;6.32;5.15;;;9.40;99.90;;;;;;4909064;29;20055;-77
2023/12/31 10:09:58;;;;;;;6.22;5.57;;;9.40;99.90;;;;;;4906415;29;20040;-76
2023/12/31 10:12:24;;;;;;;6.07;5.47;;;9.40;99.90;;;;;;4914048;29;20051;-76
2023/12/31 10:14:51;;;;;;;5.95;5.43;;;9.50;99.90;;;;;;4903644;29;20044;-77
2023/12/31 10:17:16;;;;;;;5.95;5.32;;;9.50;99.90;;;;;;4912061;29;20043;-77
2023/12/31 10:19:43;;;;;;;5.68;5.18;;;9.50;99.90;;;;;;4912052;29;20387;-77
2023/12/31 10:22:09;;;;;;;5.85;5.25;;;9.50;99.90;;;;;;4907746;29;20539;-77
2023/12/31 10:24:34;;;;;;;6.55;4.85;;;9.60;99.90;;;;;;4895366;29;20119;-78
2023/12/31 10:27:05;;;;;;;6.50;4.85;;;9.60;99.90;;;;;;4907209;29;20043;-78
2023/12/31 10:29:32;;;;;;;5.28;4.43;;;9.60;99.90;;;;;;4918025;23;20471;-76
2023/12/31 10:31:58;;;;;;;5.13;4.43;;;9.60;99.90;;;;;;4906152;29;20047;-76
2023/12/31 10:34:26;;;;;;;5.13;4.28;;;9.70;99.90;;;;;;4920699;29;20099;-76
2023/12/31 10:37:02;;;;;;;4.95;4.45;;;9.70;99.90;;;;;;4906691;29;20051;-76
2023/12/31 10:39:38;;;;;;;5.15;4.30;;;9.70;99.90;;;;;;4897969;29;20075;-76
2023/12/31 10:42:07;;;;;;;4.50;4.00;;;9.70;99.90;;;;;;4914416;29;20122;-76
2023/12/31 10:44:34;;;;;;;4.55;3.83;;;9.70;99.90;;;;;;4906797;29;20043;-76
2023/12/31 10:47:06;;;;;;;4.70;3.60;;;9.70;99.90;;;;;;4917607;29;20055;-76
2023/12/31 10:49:34;;;;;;;4.25;3.85;;;9.60;99.90;;;;;;4917649;29;20512;-76
2023/12/31 10:52:04;;;;;;;3.80;3.42;;;9.60;99.90;;;;;;4901398;29;20040;-76
2023/12/31 10:54:43;;;;;;;4.82;4.10;;;9.50;99.90;;;;;;4917371;29;20044;-76
2023/12/31 10:57:09;;;;;;;4.05;3.42;;;9.40;99.90;;;;;;4932574;29;20063;-76
2023/12/31 10:59:36;;;;;;;5.28;3.78;;;9.40;99.90;;;;;;4916554;29;20036;-76
2023/12/31 11:02:04;;;;;;;4.20;3.80;;;9.30;99.90;;;;;;4933150;29;20416;-76
2023/12/31 11:04:31;;;;;;;4.65;3.78;;;9.30;99.90;;;;;;4901300;29;20494;-76
2023/12/31 11:06:57;;;;;;;4.82;4.00;;;9.20;99.90;;;;;;4910468;29;20087;-76
2023/12/31 11:09:23;;;;;;;4.65;4.13;;;9.10;99.90;;;;;;4887163;29;20076;-76
2023/12/31 11:11:50;;;;;;;4.63;4.13;;;9.00;99.90;;;;;;4882649;29;20407;-76
2023/12/31 11:14:24;;;;;;;5.28;4.03;;;9.00;99.90;;;;;;4896058;29;20048;-77
2023/12/31 11:17:38;;;;;;;4.13;3.72;;;8.80;99.90;;;;;;4904371;29;20068;-77
2023/12/31 11:20:36;;;;;;;5.18;3.13;;;8.80;99.90;;;;;;4901099;29;20213;-75
2023/12/31 11:23:15;;;;;;;3.47;2.65;;;8.60;99.90;;;;;;4912621;29;20119;-76
2023/12/31 11:25:47;;;;;;;5.05;2.50;;;8.50;99.90;;;;;;4916499;29;20036;-76
2023/12/31 11:28:15;;;;;;;4.87;2.60;;;8.40;99.90;;;;;;4908598;29;20135;-76
2023/12/31 11:30:52;;;;;;;5.95;3.00;;;8.20;99.90;;;;;;4916292;29;20296;-75
2023/12/31 11:33:20;;;;;;;4.55;2.22;;;8.20;99.90;;;;;;4896496;29;20136;-76
2023/12/31 11:35:50;;;;;;;3.08;1.90;;;8.00;99.90;;;;;;4898261;29;20135;-75
2023/12/31 11:38:16;;;;;;;4.90;2.00;;;8.00;99.90;;;;;;4916207;29;20394;-75
2023/12/31 11:40:42;;;;;;;4.03;1.80;;;7.90;99.90;;;;;;4932489;29;20044;-76
2023/12/31 11:43:14;;;;;;;3.58;1.90;;;7.80;99.90;;;;;;4916316;29;20048;-75
2023/12/31 11:45:45;;;;;;;3.38;1.90;;;7.70;99.90;;;;;;4900071;29;20570;-75
2023/12/31 11:48:20;;;;;;;3.72;2.05;;;7.70;99.90;;;;;;4900291;29;20090;-75
2023/12/31 11:50:53;;;;;;;2.85;1.80;;;7.70;99.90;;;;;;4916044;29;20048;-75
2023/12/31 11:53:25;;;;;;;4.22;2.30;;;7.70;99.90;;;;;;4932150;29;20483;-75
2023/12/31 11:56:00;;;;;;;3.92;2.80;;;7.90;99.90;;;;;;4912712;29;20044;-75
2023/12/31 11:58:29;;;;;;;3.15;1.92;;;8.30;99.90;;;;;;4922042;29;20050;-75
2023/12/31 12:00:55;;;;;;;2.70;1.70;;;8.90;99.90;;;;;;4915648;29;20104;-75
2023/12/31 12:03:20;;;;;;;3.05;1.75;;;9.10;99.90;;;;;;4912559;29;20041;-75
2023/12/31 12:05:49;;;;;;;2.78;1.60;;;9.10;99.90;;;;;;4912684;29;20054;-75
2023/12/31 12:08:16;;;;;;;1.92;1.70;;;9.40;99.90;;;;;;4911258;29;20491;-76
2023/12/31 12:10:42;;;;;;;3.75;1.67;;;10.10;99.90;;;;;;4914961;29;20513;-75
2023/12/31 12:13:08;;;;;;;1.98;1.30;;;10.50;99.90;;;;;;4930969;29;20127;-75
2023/12/31 12:15:35;;;;;;;2.55;1.48;;;10.70;99.90;;;;;;4896974;29;20051;-75
2023/12/31 12:18:11;;;;;;;1.95;1.30;;;10.90;99.90;;;;;;4907690;29;20368;-76
2023/12/31 12:20:37;;;;;;;3.70;1.92;;;11.20;99.90;;;;;;4899676;29;20040;-75
2023/12/31 12:23:05;;;;;;;3.33;1.95;;;11.20;99.90;;;;;;4913838;29;20462;-75
2023/12/31 12:25:31;;;;;;;2.97;1.90;;;11.00;99.90;;;;;;4908147;29;20032;-75
2023/12/31 12:27:57;;;;;;;2.92;2.13;;;10.50;99.90;;;;;;4915208;29;20051;-75
2023/12/31 12:30:27;;;;;;;4.80;3.05;;;10.20;99.90;;;;;;4913486;29;20051;-75
2023/12/31 12:32:54;;;;;;;2.80;1.80;;;9.80;99.90;;;;;;4915228;29;20052;-75
2023/12/31 12:35:21;;;;;;;3.50;2.45;;;9.60;99.90;;;;;;4895572;29;20131;-75
2023/12/31 12:37:47;;;;;;;4.18;2.90;;;9.40;99.90;;;;;;4909720;29;20049;-75
2023/12/31 12:40:17;;;;;;;5.50;3.65;;;9.20;99.90;;;;;;4915372;29;20084;-75
2023/12/31 12:42:46;;;;;;;2.13;1.60;;;9.10;99.90;;;;;;4917492;29;20096;-74
2023/12/31 12:45:13;;;;;;;2.40;1.35;;;9.00;99.90;;;;;;4902046;29;20043;-74
2023/12/31 12:47:41;;;;;;;2.50;1.02;;;8.80;99.90;;;;;;4916850;29;20546;-76
2023/12/31 12:50:07;;;;;;;2.63;1.08;;;8.70;99.90;;;;;;4898893;29;20051;-76
2023/12/31 12:52:32;;;;;;;3.80;1.50;;;8.50;99.90;;;;;;4931628;29;20465;-74
2023/12/31 12:54:58;;;;;;;3.08;1.10;;;8.40;99.90;;;;;;4930216;29;20175;-74